createdAt,value
2019-06-07T00:00:38.275Z,9.90
2019-06-07T00:02:59.005Z,10.07
2019-06-07T00:05:28.822Z,10.70
2019-06-07T00:08:07.504Z,6.57
2019-06-07T00:10:36.690Z,6.17
2019-06-07T00:13:03.113Z,10.80
2019-06-07T00:15:32.765Z,11.90
2019-06-07T00:18:02.480Z,7.20
2019-06-07T00:20:32.274Z,8.73
2019-06-07T00:23:02.163Z,8.00
2019-06-07T00:25:32.039Z,7.53
2019-06-07T00:28:01.757Z,8.97
2019-06-07T00:30:46.040Z,9.13
2019-06-07T00:33:02.956Z,6.47
2019-06-07T00:35:32.602Z,8.57
2019-06-07T00:38:02.208Z,8.13
2019-06-07T00:40:32.430Z,8.60
2019-06-07T00:43:02.117Z,8.60
2019-06-07T00:45:31.792Z,12.40
2019-06-07T00:48:01.357Z,9.80
2019-06-07T00:50:30.990Z,8.07
2019-06-07T00:53:23.471Z,9.80
2019-06-07T00:55:32.360Z,10.20
2019-06-07T00:58:02.563Z,10.50
2019-06-07T01:00:32.582Z,11.90
2019-06-07T01:03:02.139Z,15.73
2019-06-07T01:05:31.791Z,9.77
2019-06-07T01:08:03.950Z,13.17
2019-06-07T01:10:52.453Z,9.63
2019-06-07T01:13:04.895Z,9.50
2019-06-07T01:15:34.456Z,11.00
2019-06-07T01:20:35.796Z,15.50
2019-06-07T01:23:05.499Z,8.63
2019-06-07T01:25:35.226Z,11.47
2019-06-07T01:28:05.347Z,7.57
2019-06-07T01:30:34.944Z,10.50
2019-06-07T01:33:04.599Z,7.77
2019-06-07T01:35:34.141Z,11.20
2019-06-07T01:38:03.865Z,10.23
2019-06-07T01:40:33.604Z,10.77
2019-06-07T01:43:04.244Z,12.53
2019-06-07T01:45:33.811Z,11.80
2019-06-07T01:48:03.457Z,11.70
2019-06-07T01:50:33.020Z,11.23
2019-06-07T01:53:02.726Z,16.43
2019-06-07T01:55:32.979Z,14.63
2019-06-07T01:58:02.608Z,12.90
2019-06-07T02:00:32.877Z,14.03
2019-06-07T02:03:02.647Z,12.00
2019-06-07T02:05:32.514Z,14.10
2019-06-07T02:08:02.188Z,17.93
2019-06-07T02:10:33.583Z,14.00
2019-06-07T02:13:02.883Z,16.97
2019-06-07T02:15:36.654Z,21.17
2019-06-07T02:18:04.905Z,20.60
2019-06-07T02:20:34.959Z,17.47
2019-06-07T02:23:04.644Z,15.47
2019-06-07T02:25:43.651Z,15.67
2019-06-07T02:28:27.594Z,16.90
2019-06-07T02:30:47.383Z,17.00
2019-06-07T02:33:08.120Z,19.30
2019-06-07T02:35:40.519Z,17.70
2019-06-07T02:38:09.262Z,17.43
2019-06-07T02:40:38.764Z,16.10
2019-06-07T02:43:08.635Z,13.27
2019-06-07T02:45:43.294Z,14.90
2019-06-07T02:48:10.076Z,14.13
2019-06-07T02:50:39.747Z,13.17
2019-06-07T02:53:09.301Z,15.93
2019-06-07T02:56:33.200Z,17.33
2019-06-07T02:58:10.339Z,16.20
2019-06-07T03:01:03.853Z,16.60
2019-06-07T03:03:17.084Z,15.97
2019-06-07T03:05:47.589Z,14.13
2019-06-07T03:08:18.140Z,12.97
2019-06-07T03:10:49.685Z,11.93
2019-06-07T03:13:20.826Z,14.60
2019-06-07T03:15:52.792Z,16.17
2019-06-07T03:18:53.603Z,15.10
2019-06-07T03:21:27.703Z,15.43
2019-06-07T03:23:57.488Z,15.03
2019-06-07T03:26:27.797Z,15.70
2019-06-07T03:28:58.810Z,17.50
2019-06-07T03:31:35.306Z,14.20
2019-06-07T03:33:59.943Z,17.97
2019-06-07T03:36:29.776Z,18.10
2019-06-07T03:38:59.432Z,15.10
2019-06-07T03:41:32.689Z,15.63
2019-06-07T03:44:00.657Z,13.97
2019-06-07T03:46:35.187Z,12.80
2019-06-07T03:49:02.822Z,12.63
2019-06-07T03:51:34.892Z,15.57
2019-06-07T03:54:03.833Z,14.80
2019-06-07T03:56:35.413Z,11.40
2019-06-07T03:59:05.252Z,13.83
2019-06-07T04:01:37.288Z,12.70
2019-06-07T04:04:06.164Z,17.80
2019-06-07T04:06:36.853Z,12.90
2019-06-07T04:09:07.700Z,13.53
2019-06-07T04:11:39.396Z,15.30
2019-06-07T04:14:08.987Z,12.20
2019-06-07T04:16:43.562Z,13.17
2019-06-07T04:19:10.131Z,15.33
2019-06-07T04:21:42.833Z,20.47
2019-06-07T04:24:11.110Z,13.53
2019-06-07T04:26:43.998Z,17.03
2019-06-07T04:31:43.425Z,15.83
2019-06-07T04:34:13.220Z,13.80
2019-06-07T04:36:56.402Z,15.00
2019-06-07T04:39:14.563Z,14.70
2019-06-07T04:41:45.803Z,16.07
2019-06-07T04:44:17.260Z,16.73
2019-06-07T04:46:50.200Z,14.40
2019-06-07T04:49:22.960Z,17.90
2019-06-07T04:51:53.569Z,16.53
2019-06-07T04:54:23.204Z,17.13
2019-06-07T04:56:52.806Z,17.03
2019-06-07T05:00:01.070Z,19.03
2019-06-07T05:01:54.076Z,13.93
2019-06-07T05:04:23.637Z,16.20
2019-06-07T05:06:53.277Z,14.83
2019-06-07T05:09:23.180Z,13.80
2019-06-07T05:11:52.757Z,13.97
2019-06-07T05:14:22.377Z,18.93
2019-06-07T05:16:51.857Z,16.77
2019-06-07T05:19:21.696Z,16.80
2019-06-07T05:22:03.744Z,15.83
2019-06-07T05:24:22.887Z,14.47
2019-06-07T05:26:52.459Z,14.50
2019-06-07T05:29:22.107Z,20.93
2019-06-07T05:31:52.024Z,15.30
2019-06-07T05:34:21.699Z,14.10
2019-06-07T05:37:10.363Z,15.87
2019-06-07T05:39:22.486Z,18.33
2019-06-07T05:41:52.360Z,18.23
2019-06-07T05:44:21.968Z,17.07
2019-06-07T05:46:51.606Z,15.87
2019-06-07T05:49:21.110Z,16.50
2019-06-07T05:51:51.604Z,15.63
2019-06-07T05:54:21.185Z,18.53
2019-06-07T05:56:50.930Z,17.27
2019-06-07T05:59:20.564Z,17.20
2019-06-07T06:02:02.065Z,16.60
2019-06-07T06:04:21.538Z,14.57
2019-06-07T06:06:51.117Z,18.50
2019-06-07T06:09:21.080Z,16.20
2019-06-07T06:12:01.524Z,17.07
2019-06-07T06:14:22.178Z,14.63
2019-06-07T06:16:52.230Z,17.80
2019-06-07T06:19:22.188Z,15.30
2019-06-07T06:21:52.320Z,16.67
2019-06-07T06:24:22.342Z,16.20
2019-06-07T06:26:57.026Z,13.87
2019-06-07T06:29:23.601Z,18.63
2019-06-07T06:32:39.412Z,15.77
2019-06-07T06:34:24.625Z,15.63
2019-06-07T06:36:54.536Z,18.10
2019-06-07T06:39:25.111Z,18.23
2019-06-07T06:42:03.249Z,14.83
2019-06-07T06:44:26.480Z,13.87
2019-06-07T06:46:58.150Z,14.30
2019-06-07T06:49:27.735Z,16.70
2019-06-07T06:51:57.329Z,15.10
2019-06-07T06:54:39.973Z,15.83
2019-06-07T06:57:17.630Z,15.17
2019-06-07T06:59:39.224Z,13.00
2019-06-07T07:02:01.005Z,16.60
2019-06-07T07:04:30.923Z,12.83
2019-06-07T07:07:00.656Z,14.60
2019-06-07T07:09:30.605Z,17.43
2019-06-07T07:12:10.883Z,18.20
2019-06-07T07:14:31.875Z,19.13
2019-06-07T07:17:01.516Z,15.13
2019-06-07T07:19:31.500Z,13.60
2019-06-07T07:22:01.373Z,16.07
2019-06-07T07:24:31.025Z,15.90
2019-06-07T07:27:00.663Z,11.87
2019-06-07T07:29:30.228Z,13.33
2019-06-07T07:31:59.781Z,10.43
2019-06-07T07:34:35.336Z,12.10
2019-06-07T07:37:00.818Z,12.87
2019-06-07T07:39:30.652Z,10.57
2019-06-07T07:42:18.223Z,12.60
2019-06-07T07:44:31.912Z,12.30
2019-06-07T07:47:01.485Z,11.57
2019-06-07T07:49:32.147Z,11.30
2019-06-07T07:52:01.755Z,10.57
2019-06-07T07:54:31.895Z,12.17
2019-06-07T07:57:01.538Z,11.43
2019-06-07T07:59:41.847Z,12.50
2019-06-07T08:02:02.571Z,10.50
2019-06-07T08:05:13.061Z,11.80
2019-06-07T08:07:03.595Z,8.60
2019-06-07T08:09:33.230Z,15.50
2019-06-07T08:12:02.846Z,10.97
2019-06-07T08:14:32.484Z,15.27
2019-06-07T08:17:02.124Z,9.73
2019-06-07T08:19:32.098Z,12.07
2019-06-07T08:22:01.961Z,10.63
2019-06-07T08:24:31.695Z,16.63
2019-06-07T08:27:24.667Z,12.07
2019-06-07T08:29:44.211Z,9.10
2019-06-07T08:32:03.888Z,10.03
2019-06-07T08:34:33.920Z,7.47
2019-06-07T08:37:03.541Z,9.40
2019-06-07T08:39:33.503Z,10.43
2019-06-07T08:42:15.511Z,7.77
2019-06-07T08:44:34.438Z,10.43
2019-06-07T08:47:18.913Z,8.23
2019-06-07T08:49:36.178Z,7.70
2019-06-07T08:52:11.894Z,7.70
2019-06-07T08:54:37.435Z,6.20
2019-06-07T08:57:20.580Z,12.30
2019-06-07T08:59:38.687Z,10.30
2019-06-07T09:02:22.920Z,12.73
2019-06-07T09:04:39.508Z,9.43
2019-06-07T09:07:19.236Z,7.00
2019-06-07T09:09:40.571Z,9.70
2019-06-07T09:12:11.335Z,14.20
2019-06-07T09:14:59.057Z,11.17
2019-06-07T09:17:12.892Z,8.07
2019-06-07T09:19:42.683Z,12.53
2019-06-07T09:22:12.455Z,9.17
2019-06-07T09:24:42.410Z,9.70
2019-06-07T09:27:12.287Z,10.40
2019-06-07T09:29:42.466Z,10.53
2019-06-07T09:32:18.210Z,8.77
2019-06-07T09:34:43.268Z,8.70
2019-06-07T09:38:03.005Z,10.43
2019-06-07T09:39:45.041Z,11.53
2019-06-07T09:42:14.687Z,10.27
2019-06-07T09:44:45.017Z,10.93
2019-06-07T09:47:31.325Z,8.27
2019-06-07T09:49:45.923Z,7.87
2019-06-07T09:52:15.653Z,9.77
2019-06-07T09:57:17.898Z,8.00
2019-06-07T09:59:47.765Z,10.50
2019-06-07T10:02:17.472Z,8.03
2019-06-07T10:04:47.071Z,9.53
2019-06-07T10:07:31.368Z,10.70
2019-06-07T10:12:19.696Z,8.20
2019-06-07T10:14:49.286Z,10.67
2019-06-07T10:17:19.313Z,10.10
2019-06-07T10:19:49.335Z,8.80
2019-06-07T10:22:19.001Z,11.03
2019-06-07T10:24:48.583Z,9.50
2019-06-07T10:27:18.145Z,10.33
2019-06-07T10:29:47.768Z,7.20
2019-06-07T10:32:17.363Z,9.20
2019-06-07T10:34:47.403Z,9.97
2019-06-07T10:37:16.952Z,6.40
2019-06-07T10:39:49.139Z,7.10
2019-06-07T10:42:18.772Z,5.67
2019-06-07T10:44:48.325Z,7.57
2019-06-07T10:47:17.914Z,8.20
2019-06-07T10:49:47.462Z,6.20
2019-06-07T10:52:17.101Z,8.73
2019-06-07T10:54:46.681Z,7.73
2019-06-07T10:57:16.425Z,6.00
2019-06-07T10:59:46.020Z,6.23
2019-06-07T11:02:16.409Z,6.67
2019-06-07T11:04:45.925Z,9.30
2019-06-07T11:07:15.547Z,6.90
2019-06-07T11:09:45.187Z,7.20
2019-06-07T11:12:15.422Z,7.33
2019-06-07T11:14:45.391Z,6.00
2019-06-07T11:17:15.749Z,5.77
2019-06-07T11:19:45.683Z,8.33
2019-06-07T11:22:15.300Z,6.87
2019-06-07T11:24:45.028Z,7.30
2019-06-07T11:27:16.271Z,7.17
2019-06-07T11:29:48.620Z,6.23
2019-06-07T11:32:19.661Z,7.23
2019-06-07T11:34:49.214Z,7.17
2019-06-07T11:37:19.137Z,8.40
2019-06-07T11:39:49.115Z,8.20
2019-06-07T11:42:20.111Z,5.13
2019-06-07T11:44:56.736Z,8.30
2019-06-07T11:47:21.032Z,7.83
2019-06-07T11:49:50.717Z,5.60
2019-06-07T11:52:20.269Z,9.20
2019-06-07T11:54:49.873Z,9.20
2019-06-07T11:57:19.508Z,7.17
2019-06-07T11:59:49.087Z,6.57
2019-06-07T12:02:18.804Z,10.43
2019-06-07T12:04:48.381Z,7.37
2019-06-07T12:07:19.946Z,9.93
2019-06-07T12:09:56.310Z,6.70
2019-06-07T12:12:20.772Z,5.17
2019-06-07T12:14:50.372Z,10.70
2019-06-07T12:17:19.999Z,4.93
2019-06-07T12:19:49.508Z,7.50
2019-06-07T12:22:20.083Z,9.93
2019-06-07T12:24:49.810Z,7.13
2019-06-07T12:27:20.734Z,6.77
2019-06-07T12:29:50.362Z,5.53
2019-06-07T12:32:21.442Z,7.80
2019-06-07T12:34:52.165Z,7.53
2019-06-07T12:37:28.397Z,5.67
2019-06-07T12:39:53.002Z,11.80
2019-06-07T12:42:22.746Z,5.30
2019-06-07T12:44:52.335Z,5.27
2019-06-07T12:47:23.256Z,11.13
2019-06-07T12:49:52.759Z,11.53
2019-06-07T12:52:23.407Z,12.07
2019-06-07T12:54:53.635Z,5.80
2019-06-07T12:57:24.157Z,6.37
2019-06-07T12:59:54.126Z,5.57
2019-06-07T13:02:25.414Z,5.30
2019-06-07T13:04:54.994Z,5.30
2019-06-07T13:07:24.549Z,7.90
2019-06-07T13:09:54.638Z,5.73
2019-06-07T13:12:24.146Z,5.60
2019-06-07T13:14:53.903Z,10.60
2019-06-07T13:17:24.182Z,4.97
2019-06-07T13:19:53.859Z,5.83
2019-06-07T13:22:24.432Z,6.30
2019-06-07T13:24:54.093Z,5.10
2019-06-07T13:27:24.549Z,8.03
2019-06-07T13:29:54.140Z,5.83
2019-06-07T13:32:23.806Z,6.37
2019-06-07T13:34:53.379Z,7.40
2019-06-07T13:37:23.466Z,8.50
2019-06-07T13:39:53.048Z,5.10
2019-06-07T13:42:22.937Z,5.23
2019-06-07T13:44:52.452Z,6.57
2019-06-07T13:47:23.138Z,11.50
2019-06-07T13:49:55.070Z,5.90
2019-06-07T13:52:24.128Z,9.03
2019-06-07T13:54:53.607Z,9.43
2019-06-07T13:57:24.400Z,6.60
2019-06-07T13:59:53.988Z,5.33
2019-06-07T14:02:26.144Z,5.70
2019-06-07T14:04:55.730Z,6.50
2019-06-07T14:07:26.970Z,7.30
2019-06-07T14:09:56.980Z,6.40
2019-06-07T14:12:27.743Z,5.90
2019-06-07T14:14:57.378Z,5.23
2019-06-07T14:17:28.342Z,6.07
2019-06-07T14:19:58.195Z,5.93
2019-06-07T14:22:29.008Z,6.47
2019-06-07T14:24:58.636Z,8.77
2019-06-07T14:27:29.606Z,6.10
2019-06-07T14:29:59.251Z,7.50
2019-06-07T14:32:28.834Z,4.97
2019-06-07T14:34:58.392Z,8.17
2019-06-07T14:37:29.033Z,5.00
2019-06-07T14:39:58.653Z,7.77
2019-06-07T14:42:29.245Z,5.03
2019-06-07T14:44:58.777Z,6.93
2019-06-07T14:47:29.874Z,7.00
2019-06-07T14:49:59.516Z,6.43
2019-06-07T14:52:30.561Z,6.40
2019-06-07T14:55:00.652Z,8.00
2019-06-07T14:57:31.078Z,8.70
2019-06-07T15:00:10.477Z,7.07
2019-06-07T15:02:36.465Z,6.93
2019-06-07T15:05:05.095Z,4.70
2019-06-07T15:07:34.952Z,4.90
2019-06-07T15:10:05.461Z,4.93
2019-06-07T15:12:35.349Z,6.93
2019-06-07T15:15:05.684Z,6.20
2019-06-07T15:17:35.656Z,5.00
2019-06-07T15:20:06.096Z,8.97
2019-06-07T15:22:36.257Z,6.17
2019-06-07T15:25:06.237Z,7.73
2019-06-07T15:27:35.806Z,7.60
2019-06-07T15:30:10.667Z,7.03
2019-06-07T15:32:39.642Z,7.90
2019-06-07T15:35:09.745Z,4.90
2019-06-07T15:37:39.552Z,7.93
2019-06-07T15:40:10.674Z,7.03
2019-06-07T15:42:51.386Z,5.20
2019-06-07T15:45:11.667Z,5.80
2019-06-07T15:47:41.592Z,4.97
2019-06-07T15:50:11.739Z,5.53
2019-06-07T15:52:43.363Z,4.60
2019-06-07T15:55:13.555Z,8.67
2019-06-07T15:57:43.263Z,6.53
2019-06-07T16:00:14.748Z,5.97
2019-06-07T16:02:44.632Z,5.53
2019-06-07T16:05:14.797Z,8.97
2019-06-07T16:07:44.291Z,5.93
2019-06-07T16:10:15.680Z,5.70
2019-06-07T16:12:59.676Z,6.00
2019-06-07T16:15:17.361Z,8.63
2019-06-07T16:17:46.958Z,8.20
2019-06-07T16:20:16.969Z,7.03
2019-06-07T16:22:46.707Z,6.87
2019-06-07T16:25:16.379Z,6.43
2019-06-07T16:27:46.295Z,6.87
2019-06-07T16:30:17.777Z,5.97
2019-06-07T16:32:47.398Z,5.93
2019-06-07T16:35:17.535Z,10.10
2019-06-07T16:37:50.528Z,7.80
2019-06-07T16:40:18.506Z,7.47
2019-06-07T16:42:49.127Z,6.97
2019-06-07T16:45:19.493Z,5.70
2019-06-07T16:47:49.709Z,8.27
2019-06-07T16:50:19.857Z,5.60
2019-06-07T16:52:49.492Z,6.10
2019-06-07T16:55:19.353Z,6.97
2019-06-07T16:57:49.262Z,6.20
2019-06-07T17:00:19.627Z,5.10
2019-06-07T17:02:49.193Z,5.93
2019-06-07T17:05:19.328Z,5.37
2019-06-07T17:07:49.133Z,10.10
2019-06-07T17:10:19.202Z,5.43
2019-06-07T17:12:49.104Z,6.00
2019-06-07T17:15:19.266Z,7.43
2019-06-07T17:17:49.399Z,5.00
2019-06-07T17:20:19.963Z,6.57
2019-06-07T17:22:49.839Z,5.10
2019-06-07T17:25:20.430Z,6.23
2019-06-07T17:27:50.271Z,6.83
2019-06-07T17:30:21.423Z,6.63
2019-06-07T17:32:58.952Z,7.33
2019-06-07T17:35:22.311Z,6.10
2019-06-07T17:37:52.200Z,7.10
2019-06-07T17:40:22.553Z,9.03
2019-06-07T17:42:52.100Z,7.67
2019-06-07T17:45:21.794Z,6.23
2019-06-07T17:47:52.100Z,7.13
2019-06-07T17:50:21.929Z,7.50
2019-06-07T17:52:52.115Z,5.77
2019-06-07T17:55:22.116Z,7.47
2019-06-07T17:57:52.687Z,6.40
2019-06-07T18:00:33.255Z,7.40
2019-06-07T18:02:55.107Z,6.67
2019-06-07T18:05:24.907Z,10.67
2019-06-07T18:07:56.452Z,7.13
2019-06-07T18:10:45.696Z,5.80
2019-06-07T18:13:15.293Z,8.00
2019-06-07T18:15:46.489Z,6.93
2019-06-07T18:18:16.442Z,11.40
2019-06-07T18:20:47.190Z,8.07
2019-06-07T18:23:17.113Z,8.53
2019-06-07T18:25:46.710Z,14.50
2019-06-07T18:28:16.334Z,7.03
2019-06-07T18:30:46.571Z,6.90
2019-06-07T18:33:16.189Z,9.33
2019-06-07T18:35:46.938Z,9.87
2019-06-07T18:38:16.717Z,7.60
2019-06-07T18:40:47.218Z,7.33
2019-06-07T18:43:16.834Z,10.90
2019-06-07T18:45:47.312Z,11.17
2019-06-07T18:48:16.966Z,8.20
2019-06-07T18:50:46.695Z,8.70
2019-06-07T18:53:16.565Z,7.83
2019-06-07T18:55:47.733Z,7.60
2019-06-07T18:58:17.476Z,7.20
2019-06-07T19:00:47.376Z,12.33
2019-06-07T19:03:16.931Z,8.30
2019-06-07T19:05:47.969Z,6.60
2019-06-07T19:08:17.565Z,10.90
2019-06-07T19:10:48.552Z,9.97
2019-06-07T19:13:18.544Z,8.67
2019-06-07T19:15:49.377Z,7.50
2019-06-07T19:18:19.078Z,9.23
2019-06-07T19:20:50.524Z,7.03
2019-06-07T19:23:20.982Z,11.43
2019-06-07T19:25:50.677Z,7.73
2019-06-07T19:28:20.304Z,8.90
2019-06-07T19:30:50.803Z,8.70
2019-06-07T19:33:20.521Z,17.13
2019-06-07T19:35:51.263Z,12.13
2019-06-07T19:38:21.026Z,10.43
2019-06-07T19:40:52.115Z,9.80
2019-06-07T19:43:21.741Z,9.07
2019-06-07T19:45:52.070Z,7.90
2019-06-07T19:48:21.655Z,11.13
2019-06-07T19:50:52.772Z,8.90
2019-06-07T19:53:23.184Z,13.90
2019-06-07T19:55:53.074Z,11.93
2019-06-07T19:58:23.536Z,13.23
2019-06-07T20:00:53.826Z,9.90
2019-06-07T20:03:23.539Z,11.20
2019-06-07T20:05:54.044Z,13.53
2019-06-07T20:08:23.727Z,8.87
2019-06-07T20:10:54.468Z,11.03
2019-06-07T20:13:24.352Z,10.80
2019-06-07T20:15:55.015Z,9.93
2019-06-07T20:18:27.758Z,8.87
2019-06-07T20:20:58.597Z,10.40
2019-06-07T20:23:28.429Z,11.47
2019-06-07T20:25:58.082Z,10.30
2019-06-07T20:28:27.905Z,9.63
2019-06-07T20:30:57.709Z,14.87
2019-06-07T20:33:27.632Z,11.57
2019-06-07T20:35:58.598Z,11.30
2019-06-07T20:38:28.227Z,10.40
2019-06-07T20:40:58.934Z,13.33
2019-06-07T20:43:28.598Z,10.37
2019-06-07T20:46:00.658Z,10.20
2019-06-07T20:48:29.500Z,11.33
2019-06-07T20:51:00.821Z,9.67
2019-06-07T20:53:30.447Z,10.43
2019-06-07T20:56:00.510Z,8.17
2019-06-07T20:58:29.992Z,11.80
2019-06-07T21:01:00.594Z,6.40
2019-06-07T21:03:30.195Z,15.73
2019-06-07T21:06:01.259Z,15.97
2019-06-07T21:08:30.904Z,30.73
2019-06-07T21:11:01.635Z,26.40
2019-06-07T21:13:31.254Z,14.33
2019-06-07T21:16:01.967Z,16.87
2019-06-07T21:18:31.680Z,12.70
2019-06-07T21:21:02.351Z,14.67
2019-06-07T21:23:32.191Z,14.93
2019-06-07T21:26:02.837Z,7.57
2019-06-07T21:28:32.639Z,12.77
2019-06-07T21:31:03.381Z,14.17
2019-06-07T21:33:33.446Z,12.10
2019-06-07T21:36:04.390Z,9.97
2019-06-07T21:38:34.458Z,6.67
2019-06-07T21:41:04.176Z,10.83
2019-06-07T21:43:33.851Z,16.00
2019-06-07T21:46:06.964Z,13.53
2019-06-07T21:48:35.305Z,15.83
2019-06-07T21:51:06.604Z,10.50
2019-06-07T21:53:36.186Z,8.77
2019-06-07T21:56:07.087Z,14.63
2019-06-07T21:58:37.419Z,10.37
2019-06-07T22:01:14.481Z,8.97
2019-06-07T22:03:45.755Z,4.37
2019-06-07T22:06:15.692Z,9.70
2019-06-07T22:08:47.666Z,3.97
2019-06-07T22:11:19.133Z,4.27
2019-06-07T22:13:48.633Z,4.93
2019-06-07T22:16:28.599Z,4.47
2019-06-07T22:18:49.598Z,5.87
2019-06-07T22:21:19.284Z,5.67
2019-06-07T22:23:50.528Z,7.10
2019-06-07T22:26:20.129Z,6.73
2019-06-07T22:28:49.881Z,3.47
2019-06-07T22:31:19.667Z,13.93
2019-06-07T22:33:49.269Z,5.97
2019-06-07T22:36:19.493Z,4.40
2019-06-07T22:38:49.716Z,6.27
2019-06-07T22:41:21.857Z,4.60
2019-06-07T22:43:51.870Z,3.20
2019-06-07T22:46:36.397Z,2.97
2019-06-07T22:48:52.808Z,8.47
2019-06-07T22:51:41.587Z,5.90
2019-06-07T22:54:11.769Z,2.10
2019-06-07T22:56:53.479Z,5.20
2019-06-07T22:59:23.070Z,6.93
2019-06-07T23:01:52.791Z,8.90
2019-06-07T23:04:22.391Z,9.47
2019-06-07T23:06:51.988Z,4.87
2019-06-07T23:09:21.678Z,3.83
2019-06-07T23:11:51.307Z,7.73
2019-06-07T23:14:20.965Z,8.23
2019-06-07T23:16:55.486Z,4.30
2019-06-07T23:19:22.172Z,4.40
2019-06-07T23:21:51.991Z,2.70
2019-06-07T23:24:22.371Z,3.60
2019-06-07T23:26:51.915Z,6.90
2019-06-07T23:29:21.682Z,2.03
2019-06-07T23:31:51.657Z,2.67
2019-06-07T23:34:21.608Z,6.90
2019-06-07T23:36:51.153Z,4.60
2019-06-07T23:39:22.407Z,4.57
2019-06-07T23:41:52.282Z,3.23
2019-06-07T23:44:21.926Z,5.70
2019-06-07T23:46:51.571Z,7.90
2019-06-07T23:49:22.570Z,4.80
2019-06-07T23:51:52.291Z,9.20
2019-06-07T23:54:22.171Z,6.30
2019-06-07T23:56:51.854Z,6.73
2019-06-07T23:59:22.409Z,1.80
